sensor_id;sensor_type;location;lat;lon;timestamp;P1;durP1;ratioP1;P2;durP2;ratioP2
40827;SDS011;26549;50.918;5.338;2022-12-29T00:01:45;1.67;;;0.80;;
40827;SDS011;26549;50.918;5.338;2022-12-29T00:04:11;0.70;;;0.70;;
40827;SDS011;26549;50.918;5.338;2022-12-29T00:06:39;0.98;;;0.70;;
40827;SDS011;26549;50.918;5.338;2022-12-29T00:09:04;0.50;;;0.50;;
40827;SDS011;26549;50.918;5.338;2022-12-29T00:11:30;1.23;;;0.60;;
40827;SDS011;26549;50.918;5.338;2022-12-29T00:13:56;1.45;;;1.35;;
40827;SDS011;26549;50.918;5.338;2022-12-29T00:16:41;0.82;;;0.50;;
40827;SDS011;26549;50.918;5.338;2022-12-29T00:19:08;1.27;;;0.65;;
40827;SDS011;26549;50.918;5.338;2022-12-29T00:21:55;0.60;;;0.55;;
40827;SDS011;26549;50.918;5.338;2022-12-29T00:24:40;0.45;;;0.45;;
40827;SDS011;26549;50.918;5.338;2022-12-29T00:27:25;0.73;;;0.73;;
40827;SDS011;26549;50.918;5.338;2022-12-29T00:30:11;0.57;;;0.50;;
40827;SDS011;26549;50.918;5.338;2022-12-29T00:32:57;5.47;;;0.60;;
40827;SDS011;26549;50.918;5.338;2022-12-29T00:35:44;0.95;;;0.63;;
40827;SDS011;26549;50.918;5.338;2022-12-29T00:38:18;0.50;;;0.50;;
40827;SDS011;26549;50.918;5.338;2022-12-29T00:41:08;0.68;;;0.65;;
40827;SDS011;26549;50.918;5.338;2022-12-29T00:43:53;0.93;;;0.70;;
40827;SDS011;26549;50.918;5.338;2022-12-29T00:46:31;0.45;;;0.45;;
40827;SDS011;26549;50.918;5.338;2022-12-29T00:48:58;0.85;;;0.50;;
40827;SDS011;26549;50.918;5.338;2022-12-29T00:51:42;0.32;;;0.32;;
40827;SDS011;26549;50.918;5.338;2022-12-29T00:54:08;0.63;;;0.63;;
40827;SDS011;26549;50.918;5.338;2022-12-29T00:56:34;1.23;;;0.77;;
40827;SDS011;26549;50.918;5.338;2022-12-29T00:59:01;1.13;;;0.60;;
40827;SDS011;26549;50.918;5.338;2022-12-29T01:01:32;1.05;;;0.32;;
40827;SDS011;26549;50.918;5.338;2022-12-29T01:03:58;1.00;;;0.52;;
40827;SDS011;26549;50.918;5.338;2022-12-29T01:06:24;0.63;;;0.63;;
40827;SDS011;26549;50.918;5.338;2022-12-29T01:08:50;1.75;;;0.73;;
40827;SDS011;26549;50.918;5.338;2022-12-29T01:11:37;0.85;;;0.60;;
40827;SDS011;26549;50.918;5.338;2022-12-29T01:14:04;1.10;;;0.60;;
40827;SDS011;26549;50.918;5.338;2022-12-29T01:16:31;0.73;;;0.68;;
40827;SDS011;26549;50.918;5.338;2022-12-29T01:18:58;2.63;;;0.60;;
40827;SDS011;26549;50.918;5.338;2022-12-29T01:21:24;0.82;;;0.73;;
40827;SDS011;26549;50.918;5.338;2022-12-29T01:23:49;1.23;;;0.60;;
40827;SDS011;26549;50.918;5.338;2022-12-29T01:26:16;1.08;;;0.60;;
40827;SDS011;26549;50.918;5.338;2022-12-29T01:28:42;2.42;;;0.70;;
40827;SDS011;26549;50.918;5.338;2022-12-29T01:31:09;1.30;;;0.50;;
40827;SDS011;26549;50.918;5.338;2022-12-29T01:33:36;1.15;;;0.75;;
40827;SDS011;26549;50.918;5.338;2022-12-29T01:36:02;0.68;;;0.50;;
40827;SDS011;26549;50.918;5.338;2022-12-29T01:38:29;2.78;;;0.52;;
40827;SDS011;26549;50.918;5.338;2022-12-29T01:40:55;2.50;;;0.70;;
40827;SDS011;26549;50.918;5.338;2022-12-29T01:43:21;0.95;;;0.55;;
40827;SDS011;26549;50.918;5.338;2022-12-29T01:46:03;0.80;;;0.60;;
40827;SDS011;26549;50.918;5.338;2022-12-29T01:48:29;0.52;;;0.52;;
40827;SDS011;26549;50.918;5.338;2022-12-29T01:50:55;3.33;;;0.55;;
40827;SDS011;26549;50.918;5.338;2022-12-29T01:53:22;1.77;;;0.70;;
40827;SDS011;26549;50.918;5.338;2022-12-29T01:55:57;1.25;;;0.60;;
40827;SDS011;26549;50.918;5.338;2022-12-29T01:58:29;1.83;;;1.27;;
40827;SDS011;26549;50.918;5.338;2022-12-29T02:00:58;1.85;;;0.80;;
40827;SDS011;26549;50.918;5.338;2022-12-29T02:03:24;4.68;;;1.02;;
40827;SDS011;26549;50.918;5.338;2022-12-29T02:08:29;0.80;;;0.70;;
40827;SDS011;26549;50.918;5.338;2022-12-29T02:10:56;0.98;;;0.68;;
40827;SDS011;26549;50.918;5.338;2022-12-29T02:13:26;1.83;;;0.60;;
40827;SDS011;26549;50.918;5.338;2022-12-29T02:16:06;0.47;;;0.40;;
40827;SDS011;26549;50.918;5.338;2022-12-29T02:18:49;0.40;;;0.40;;
40827;SDS011;26549;50.918;5.338;2022-12-29T02:24:44;0.63;;;0.60;;
40827;SDS011;26549;50.918;5.338;2022-12-29T02:33:12;2.03;;;0.60;;
40827;SDS011;26549;50.918;5.338;2022-12-29T02:38:59;1.00;;;0.80;;
40827;SDS011;26549;50.918;5.338;2022-12-29T02:47:10;0.52;;;0.40;;
40827;SDS011;26549;50.918;5.338;2022-12-29T02:50:01;1.00;;;0.60;;
40827;SDS011;26549;50.918;5.338;2022-12-29T02:52:29;0.70;;;0.60;;
40827;SDS011;26549;50.918;5.338;2022-12-29T02:55:02;3.22;;;0.70;;
40827;SDS011;26549;50.918;5.338;2022-12-29T02:57:30;0.65;;;0.55;;
40827;SDS011;26549;50.918;5.338;2022-12-29T03:00:01;2.08;;;0.50;;
40827;SDS011;26549;50.918;5.338;2022-12-29T03:10:43;0.80;;;0.52;;
40827;SDS011;26549;50.918;5.338;2022-12-29T03:13:27;0.50;;;0.40;;
40827;SDS011;26549;50.918;5.338;2022-12-29T03:17:02;1.55;;;0.50;;
40827;SDS011;26549;50.918;5.338;2022-12-29T03:19:10;1.50;;;0.60;;
40827;SDS011;26549;50.918;5.338;2022-12-29T03:21:57;0.40;;;0.40;;
40827;SDS011;26549;50.918;5.338;2022-12-29T03:27:44;0.43;;;0.43;;
40827;SDS011;26549;50.918;5.338;2022-12-29T03:30:14;0.52;;;0.40;;
40827;SDS011;26549;50.918;5.338;2022-12-29T03:32:45;1.08;;;0.52;;
40827;SDS011;26549;50.918;5.338;2022-12-29T03:35:15;2.72;;;0.63;;
40827;SDS011;26549;50.918;5.338;2022-12-29T03:37:50;2.88;;;1.67;;
40827;SDS011;26549;50.918;5.338;2022-12-29T03:40:22;5.68;;;1.08;;
40827;SDS011;26549;50.918;5.338;2022-12-29T03:42:50;0.45;;;0.40;;
40827;SDS011;26549;50.918;5.338;2022-12-29T03:45:17;1.27;;;0.50;;
40827;SDS011;26549;50.918;5.338;2022-12-29T03:47:44;1.13;;;0.50;;
40827;SDS011;26549;50.918;5.338;2022-12-29T03:50:11;1.48;;;0.90;;
40827;SDS011;26549;50.918;5.338;2022-12-29T03:52:38;2.45;;;0.70;;
40827;SDS011;26549;50.918;5.338;2022-12-29T03:55:04;3.50;;;1.35;;
40827;SDS011;26549;50.918;5.338;2022-12-29T03:57:30;1.52;;;0.70;;
40827;SDS011;26549;50.918;5.338;2022-12-29T03:59:56;4.07;;;0.45;;
40827;SDS011;26549;50.918;5.338;2022-12-29T04:02:21;0.88;;;0.40;;
40827;SDS011;26549;50.918;5.338;2022-12-29T04:04:48;1.92;;;0.50;;
40827;SDS011;26549;50.918;5.338;2022-12-29T04:07:14;1.38;;;0.43;;
40827;SDS011;26549;50.918;5.338;2022-12-29T04:09:40;1.30;;;0.70;;
40827;SDS011;26549;50.918;5.338;2022-12-29T04:12:06;3.78;;;0.68;;
40827;SDS011;26549;50.918;5.338;2022-12-29T04:14:32;4.50;;;1.58;;
40827;SDS011;26549;50.918;5.338;2022-12-29T04:16:57;1.27;;;0.50;;
40827;SDS011;26549;50.918;5.338;2022-12-29T04:19:23;4.32;;;0.88;;
40827;SDS011;26549;50.918;5.338;2022-12-29T04:21:49;1.35;;;0.50;;
40827;SDS011;26549;50.918;5.338;2022-12-29T04:24:15;1.92;;;0.60;;
40827;SDS011;26549;50.918;5.338;2022-12-29T04:26:40;2.38;;;0.82;;
40827;SDS011;26549;50.918;5.338;2022-12-29T04:29:06;2.90;;;0.70;;
40827;SDS011;26549;50.918;5.338;2022-12-29T04:31:32;1.80;;;0.70;;
40827;SDS011;26549;50.918;5.338;2022-12-29T04:33:58;0.80;;;0.50;;
40827;SDS011;26549;50.918;5.338;2022-12-29T04:36:25;2.35;;;0.40;;
40827;SDS011;26549;50.918;5.338;2022-12-29T04:38:51;1.77;;;1.02;;
40827;SDS011;26549;50.918;5.338;2022-12-29T04:41:17;1.67;;;0.57;;
40827;SDS011;26549;50.918;5.338;2022-12-29T04:43:42;1.20;;;1.10;;
40827;SDS011;26549;50.918;5.338;2022-12-29T04:46:08;1.25;;;0.52;;
40827;SDS011;26549;50.918;5.338;2022-12-29T04:48:34;1.10;;;0.40;;
40827;SDS011;26549;50.918;5.338;2022-12-29T04:51:00;1.95;;;0.50;;
40827;SDS011;26549;50.918;5.338;2022-12-29T04:53:26;1.15;;;0.35;;
40827;SDS011;26549;50.918;5.338;2022-12-29T04:55:52;0.95;;;0.45;;
40827;SDS011;26549;50.918;5.338;2022-12-29T04:58:18;1.88;;;0.60;;
40827;SDS011;26549;50.918;5.338;2022-12-29T05:00:44;0.85;;;0.40;;
40827;SDS011;26549;50.918;5.338;2022-12-29T05:03:10;2.47;;;0.60;;
40827;SDS011;26549;50.918;5.338;2022-12-29T05:05:36;1.38;;;0.52;;
40827;SDS011;26549;50.918;5.338;2022-12-29T05:08:02;6.05;;;1.35;;
40827;SDS011;26549;50.918;5.338;2022-12-29T05:10:28;0.70;;;0.60;;
40827;SDS011;26549;50.918;5.338;2022-12-29T05:12:54;3.88;;;0.70;;
40827;SDS011;26549;50.918;5.338;2022-12-29T05:15:21;3.40;;;0.98;;
40827;SDS011;26549;50.918;5.338;2022-12-29T05:17:47;4.05;;;0.80;;
40827;SDS011;26549;50.918;5.338;2022-12-29T05:20:12;2.70;;;0.70;;
40827;SDS011;26549;50.918;5.338;2022-12-29T05:22:38;2.85;;;0.90;;
40827;SDS011;26549;50.918;5.338;2022-12-29T05:25:04;2.00;;;0.60;;
40827;SDS011;26549;50.918;5.338;2022-12-29T05:27:30;2.80;;;0.73;;
40827;SDS011;26549;50.918;5.338;2022-12-29T05:29:55;2.30;;;0.68;;
40827;SDS011;26549;50.918;5.338;2022-12-29T05:32:21;2.15;;;0.77;;
40827;SDS011;26549;50.918;5.338;2022-12-29T05:34:47;1.63;;;0.73;;
40827;SDS011;26549;50.918;5.338;2022-12-29T05:37:13;1.63;;;0.82;;
40827;SDS011;26549;50.918;5.338;2022-12-29T05:39:38;2.83;;;0.80;;
40827;SDS011;26549;50.918;5.338;2022-12-29T05:42:04;3.47;;;0.80;;
40827;SDS011;26549;50.918;5.338;2022-12-29T05:44:30;6.05;;;0.80;;
40827;SDS011;26549;50.918;5.338;2022-12-29T05:46:55;7.53;;;2.08;;
40827;SDS011;26549;50.918;5.338;2022-12-29T05:49:21;4.05;;;1.10;;
40827;SDS011;26549;50.918;5.338;2022-12-29T05:51:47;5.30;;;1.25;;
40827;SDS011;26549;50.918;5.338;2022-12-29T05:54:13;3.75;;;0.93;;
40827;SDS011;26549;50.918;5.338;2022-12-29T05:56:39;3.30;;;0.47;;
40827;SDS011;26549;50.918;5.338;2022-12-29T05:59:04;1.55;;;0.60;;
40827;SDS011;26549;50.918;5.338;2022-12-29T06:01:30;2.38;;;0.55;;
40827;SDS011;26549;50.918;5.338;2022-12-29T06:03:56;7.85;;;1.75;;
40827;SDS011;26549;50.918;5.338;2022-12-29T06:06:22;3.20;;;0.50;;
40827;SDS011;26549;50.918;5.338;2022-12-29T06:08:47;6.80;;;1.02;;
40827;SDS011;26549;50.918;5.338;2022-12-29T06:11:13;5.78;;;0.80;;
40827;SDS011;26549;50.918;5.338;2022-12-29T06:13:39;3.47;;;0.90;;
40827;SDS011;26549;50.918;5.338;2022-12-29T06:16:04;3.33;;;0.80;;
40827;SDS011;26549;50.918;5.338;2022-12-29T06:18:30;2.70;;;1.38;;
40827;SDS011;26549;50.918;5.338;2022-12-29T06:21:00;5.40;;;0.77;;
40827;SDS011;26549;50.918;5.338;2022-12-29T06:23:26;3.33;;;1.20;;
40827;SDS011;26549;50.918;5.338;2022-12-29T06:25:52;5.72;;;1.77;;
40827;SDS011;26549;50.918;5.338;2022-12-29T06:28:18;3.22;;;0.70;;
40827;SDS011;26549;50.918;5.338;2022-12-29T06:30:44;5.32;;;1.58;;
40827;SDS011;26549;50.918;5.338;2022-12-29T06:33:10;3.30;;;0.95;;
40827;SDS011;26549;50.918;5.338;2022-12-29T06:35:37;1.73;;;0.88;;
40827;SDS011;26549;50.918;5.338;2022-12-29T06:38:03;2.60;;;0.93;;
40827;SDS011;26549;50.918;5.338;2022-12-29T06:40:29;7.43;;;0.98;;
40827;SDS011;26549;50.918;5.338;2022-12-29T06:42:55;5.63;;;2.05;;
40827;SDS011;26549;50.918;5.338;2022-12-29T06:45:21;2.55;;;0.80;;
40827;SDS011;26549;50.918;5.338;2022-12-29T06:47:46;8.80;;;1.58;;
40827;SDS011;26549;50.918;5.338;2022-12-29T06:50:12;2.58;;;0.85;;
40827;SDS011;26549;50.918;5.338;2022-12-29T06:52:38;4.30;;;0.77;;
40827;SDS011;26549;50.918;5.338;2022-12-29T06:55:04;3.50;;;1.73;;
40827;SDS011;26549;50.918;5.338;2022-12-29T06:57:30;4.95;;;0.90;;
40827;SDS011;26549;50.918;5.338;2022-12-29T06:59:56;6.65;;;1.48;;
40827;SDS011;26549;50.918;5.338;2022-12-29T07:02:22;5.03;;;0.90;;
40827;SDS011;26549;50.918;5.338;2022-12-29T07:04:50;5.40;;;0.98;;
40827;SDS011;26549;50.918;5.338;2022-12-29T07:07:17;3.10;;;0.70;;
40827;SDS011;26549;50.918;5.338;2022-12-29T07:09:44;3.13;;;2.00;;
40827;SDS011;26549;50.918;5.338;2022-12-29T07:12:09;4.72;;;1.08;;
40827;SDS011;26549;50.918;5.338;2022-12-29T07:14:35;4.03;;;0.88;;
40827;SDS011;26549;50.918;5.338;2022-12-29T07:17:03;2.17;;;0.90;;
40827;SDS011;26549;50.918;5.338;2022-12-29T07:19:31;5.10;;;0.73;;
40827;SDS011;26549;50.918;5.338;2022-12-29T07:21:58;4.45;;;1.05;;
40827;SDS011;26549;50.918;5.338;2022-12-29T07:24:23;3.63;;;1.58;;
40827;SDS011;26549;50.918;5.338;2022-12-29T07:26:51;6.47;;;2.58;;
40827;SDS011;26549;50.918;5.338;2022-12-29T07:29:17;5.15;;;0.90;;
40827;SDS011;26549;50.918;5.338;2022-12-29T07:31:43;3.35;;;1.13;;
40827;SDS011;26549;50.918;5.338;2022-12-29T07:34:08;6.95;;;1.58;;
40827;SDS011;26549;50.918;5.338;2022-12-29T07:36:34;10.25;;;2.17;;
40827;SDS011;26549;50.918;5.338;2022-12-29T07:39:00;5.93;;;1.40;;
40827;SDS011;26549;50.918;5.338;2022-12-29T07:41:26;4.43;;;1.05;;
40827;SDS011;26549;50.918;5.338;2022-12-29T07:43:52;4.32;;;1.17;;
40827;SDS011;26549;50.918;5.338;2022-12-29T07:46:18;9.20;;;1.65;;
40827;SDS011;26549;50.918;5.338;2022-12-29T07:48:43;5.53;;;1.27;;
40827;SDS011;26549;50.918;5.338;2022-12-29T07:51:09;3.90;;;0.90;;
40827;SDS011;26549;50.918;5.338;2022-12-29T07:53:36;9.80;;;2.35;;
40827;SDS011;26549;50.918;5.338;2022-12-29T07:56:02;7.28;;;2.15;;
40827;SDS011;26549;50.918;5.338;2022-12-29T07:58:28;4.57;;;1.52;;
40827;SDS011;26549;50.918;5.338;2022-12-29T08:00:54;4.38;;;1.15;;
40827;SDS011;26549;50.918;5.338;2022-12-29T08:03:21;7.38;;;1.27;;
40827;SDS011;26549;50.918;5.338;2022-12-29T08:05:47;4.15;;;1.10;;
40827;SDS011;26549;50.918;5.338;2022-12-29T08:08:13;5.60;;;1.20;;
40827;SDS011;26549;50.918;5.338;2022-12-29T08:10:40;5.18;;;1.20;;
40827;SDS011;26549;50.918;5.338;2022-12-29T08:13:05;7.28;;;1.30;;
40827;SDS011;26549;50.918;5.338;2022-12-29T08:15:31;5.00;;;1.15;;
40827;SDS011;26549;50.918;5.338;2022-12-29T08:17:57;7.70;;;1.50;;
40827;SDS011;26549;50.918;5.338;2022-12-29T08:20:22;2.88;;;1.48;;
40827;SDS011;26549;50.918;5.338;2022-12-29T08:22:48;7.72;;;1.08;;
40827;SDS011;26549;50.918;5.338;2022-12-29T08:25:15;6.07;;;1.17;;
40827;SDS011;26549;50.918;5.338;2022-12-29T08:27:41;5.63;;;1.00;;
40827;SDS011;26549;50.918;5.338;2022-12-29T08:30:07;5.55;;;1.27;;
40827;SDS011;26549;50.918;5.338;2022-12-29T08:32:33;2.05;;;0.70;;
40827;SDS011;26549;50.918;5.338;2022-12-29T08:34:59;4.70;;;1.88;;
40827;SDS011;26549;50.918;5.338;2022-12-29T08:37:25;4.97;;;1.70;;
40827;SDS011;26549;50.918;5.338;2022-12-29T08:39:51;5.32;;;1.02;;
40827;SDS011;26549;50.918;5.338;2022-12-29T08:42:16;4.38;;;1.38;;
40827;SDS011;26549;50.918;5.338;2022-12-29T08:44:42;8.75;;;1.80;;
40827;SDS011;26549;50.918;5.338;2022-12-29T08:47:09;2.80;;;0.95;;
40827;SDS011;26549;50.918;5.338;2022-12-29T08:49:36;4.97;;;1.50;;
40827;SDS011;26549;50.918;5.338;2022-12-29T08:52:02;5.88;;;1.40;;
40827;SDS011;26549;50.918;5.338;2022-12-29T08:54:28;2.47;;;1.00;;
40827;SDS011;26549;50.918;5.338;2022-12-29T08:56:54;5.32;;;1.05;;
40827;SDS011;26549;50.918;5.338;2022-12-29T08:59:20;6.25;;;2.20;;
40827;SDS011;26549;50.918;5.338;2022-12-29T09:01:46;2.63;;;0.88;;
40827;SDS011;26549;50.918;5.338;2022-12-29T09:04:12;4.43;;;1.23;;
40827;SDS011;26549;50.918;5.338;2022-12-29T09:06:38;3.92;;;1.20;;
40827;SDS011;26549;50.918;5.338;2022-12-29T09:09:04;8.23;;;1.30;;
40827;SDS011;26549;50.918;5.338;2022-12-29T09:11:30;4.07;;;1.67;;
40827;SDS011;26549;50.918;5.338;2022-12-29T09:13:55;6.90;;;1.10;;
40827;SDS011;26549;50.918;5.338;2022-12-29T09:16:22;4.97;;;1.08;;
40827;SDS011;26549;50.918;5.338;2022-12-29T09:18:48;5.07;;;1.45;;
40827;SDS011;26549;50.918;5.338;2022-12-29T09:21:16;5.28;;;1.52;;
40827;SDS011;26549;50.918;5.338;2022-12-29T09:23:42;5.47;;;1.13;;
40827;SDS011;26549;50.918;5.338;2022-12-29T09:26:08;5.75;;;1.23;;
40827;SDS011;26549;50.918;5.338;2022-12-29T09:28:34;3.38;;;1.35;;
40827;SDS011;26549;50.918;5.338;2022-12-29T09:31:00;4.65;;;1.17;;
40827;SDS011;26549;50.918;5.338;2022-12-29T09:33:26;7.50;;;2.40;;
40827;SDS011;26549;50.918;5.338;2022-12-29T09:35:53;3.63;;;1.42;;
40827;SDS011;26549;50.918;5.338;2022-12-29T09:38:21;7.07;;;2.33;;
40827;SDS011;26549;50.918;5.338;2022-12-29T09:40:49;5.43;;;1.20;;
40827;SDS011;26549;50.918;5.338;2022-12-29T09:46:18;4.07;;;1.20;;
40827;SDS011;26549;50.918;5.338;2022-12-29T09:51:43;5.28;;;2.20;;
40827;SDS011;26549;50.918;5.338;2022-12-29T09:56:48;11.20;;;1.58;;
40827;SDS011;26549;50.918;5.338;2022-12-29T09:59:15;9.95;;;2.20;;
40827;SDS011;26549;50.918;5.338;2022-12-29T10:01:46;9.52;;;1.63;;
40827;SDS011;26549;50.918;5.338;2022-12-29T10:04:29;7.28;;;2.00;;
40827;SDS011;26549;50.918;5.338;2022-12-29T10:07:03;10.63;;;2.50;;
40827;SDS011;26549;50.918;5.338;2022-12-29T10:10:01;4.80;;;1.30;;
40827;SDS011;26549;50.918;5.338;2022-12-29T10:12:47;12.90;;;2.95;;
40827;SDS011;26549;50.918;5.338;2022-12-29T10:18:31;7.82;;;2.22;;
40827;SDS011;26549;50.918;5.338;2022-12-29T10:23:54;9.02;;;1.98;;
40827;SDS011;26549;50.918;5.338;2022-12-29T10:26:26;4.90;;;1.20;;
40827;SDS011;26549;50.918;5.338;2022-12-29T10:29:04;7.07;;;1.20;;
40827;SDS011;26549;50.918;5.338;2022-12-29T10:31:38;9.82;;;1.48;;
40827;SDS011;26549;50.918;5.338;2022-12-29T10:34:29;5.50;;;1.60;;
40827;SDS011;26549;50.918;5.338;2022-12-29T10:37:05;4.85;;;1.50;;
40827;SDS011;26549;50.918;5.338;2022-12-29T10:39:53;6.03;;;1.23;;
40827;SDS011;26549;50.918;5.338;2022-12-29T10:45:02;7.65;;;2.00;;
40827;SDS011;26549;50.918;5.338;2022-12-29T10:47:29;6.50;;;2.20;;
40827;SDS011;26549;50.918;5.338;2022-12-29T10:50:00;6.13;;;1.40;;
40827;SDS011;26549;50.918;5.338;2022-12-29T10:52:26;8.52;;;1.52;;
40827;SDS011;26549;50.918;5.338;2022-12-29T10:55:04;9.90;;;1.85;;
40827;SDS011;26549;50.918;5.338;2022-12-29T10:57:41;10.13;;;2.05;;
40827;SDS011;26549;50.918;5.338;2022-12-29T11:00:15;4.88;;;1.33;;
40827;SDS011;26549;50.918;5.338;2022-12-29T11:02:59;6.47;;;1.00;;
40827;SDS011;26549;50.918;5.338;2022-12-29T11:08:27;9.82;;;1.50;;
40827;SDS011;26549;50.918;5.338;2022-12-29T11:11:05;9.02;;;1.50;;
40827;SDS011;26549;50.918;5.338;2022-12-29T11:14:19;5.82;;;1.38;;
40827;SDS011;26549;50.918;5.338;2022-12-29T11:16:33;5.30;;;1.38;;
40827;SDS011;26549;50.918;5.338;2022-12-29T11:19:00;10.32;;;1.42;;
40827;SDS011;26549;50.918;5.338;2022-12-29T11:21:32;3.15;;;1.30;;
40827;SDS011;26549;50.918;5.338;2022-12-29T11:24:04;7.07;;;1.48;;
40827;SDS011;26549;50.918;5.338;2022-12-29T11:26:43;6.93;;;2.15;;
40827;SDS011;26549;50.918;5.338;2022-12-29T11:31:47;5.78;;;2.15;;
40827;SDS011;26549;50.918;5.338;2022-12-29T11:34:25;4.85;;;1.83;;
40827;SDS011;26549;50.918;5.338;2022-12-29T11:37:00;4.80;;;1.10;;
40827;SDS011;26549;50.918;5.338;2022-12-29T11:39:32;6.45;;;1.20;;
40827;SDS011;26549;50.918;5.338;2022-12-29T11:41:59;7.82;;;1.45;;
40827;SDS011;26549;50.918;5.338;2022-12-29T11:44:27;6.95;;;1.60;;
40827;SDS011;26549;50.918;5.338;2022-12-29T11:47:02;4.45;;;0.95;;
40827;SDS011;26549;50.918;5.338;2022-12-29T11:49:31;9.13;;;1.13;;
40827;SDS011;26549;50.918;5.338;2022-12-29T11:51:57;6.45;;;1.52;;
40827;SDS011;26549;50.918;5.338;2022-12-29T11:54:31;4.18;;;1.30;;
40827;SDS011;26549;50.918;5.338;2022-12-29T11:57:11;1.77;;;1.05;;
40827;SDS011;26549;50.918;5.338;2022-12-29T11:59:41;2.50;;;1.20;;
40827;SDS011;26549;50.918;5.338;2022-12-29T12:02:13;6.32;;;1.23;;
40827;SDS011;26549;50.918;5.338;2022-12-29T12:04:45;5.13;;;1.10;;
40827;SDS011;26549;50.918;5.338;2022-12-29T12:07:37;8.77;;;2.70;;
40827;SDS011;26549;50.918;5.338;2022-12-29T12:10:04;3.65;;;1.13;;
40827;SDS011;26549;50.918;5.338;2022-12-29T12:12:44;12.38;;;1.65;;
40827;SDS011;26549;50.918;5.338;2022-12-29T12:15:24;6.45;;;1.15;;
40827;SDS011;26549;50.918;5.338;2022-12-29T12:18:05;10.57;;;1.88;;
40827;SDS011;26549;50.918;5.338;2022-12-29T12:25:57;8.10;;;1.40;;
40827;SDS011;26549;50.918;5.338;2022-12-29T12:30:59;3.30;;;1.40;;
40827;SDS011;26549;50.918;5.338;2022-12-29T12:33:31;3.90;;;0.70;;
40827;SDS011;26549;50.918;5.338;2022-12-29T12:39:06;4.53;;;1.13;;
40827;SDS011;26549;50.918;5.338;2022-12-29T12:42:04;10.15;;;1.92;;
40827;SDS011;26549;50.918;5.338;2022-12-29T12:53:19;9.02;;;1.40;;
40827;SDS011;26549;50.918;5.338;2022-12-29T12:56:01;5.93;;;1.05;;
40827;SDS011;26549;50.918;5.338;2022-12-29T13:01:10;12.55;;;2.28;;
40827;SDS011;26549;50.918;5.338;2022-12-29T13:06:46;8.30;;;2.08;;
40827;SDS011;26549;50.918;5.338;2022-12-29T13:17:56;5.35;;;1.77;;
40827;SDS011;26549;50.918;5.338;2022-12-29T13:20:54;4.78;;;1.27;;
40827;SDS011;26549;50.918;5.338;2022-12-29T13:23:36;4.45;;;1.40;;
40827;SDS011;26549;50.918;5.338;2022-12-29T13:26:08;7.80;;;1.52;;
40827;SDS011;26549;50.918;5.338;2022-12-29T13:29:18;5.30;;;1.13;;
40827;SDS011;26549;50.918;5.338;2022-12-29T13:32:18;5.85;;;1.30;;
40827;SDS011;26549;50.918;5.338;2022-12-29T13:35:17;5.72;;;1.33;;
40827;SDS011;26549;50.918;5.338;2022-12-29T13:37:50;8.98;;;1.13;;
40827;SDS011;26549;50.918;5.338;2022-12-29T13:40:24;10.50;;;1.30;;
40827;SDS011;26549;50.918;5.338;2022-12-29T13:42:53;7.78;;;1.50;;
40827;SDS011;26549;50.918;5.338;2022-12-29T13:45:24;8.20;;;1.15;;
40827;SDS011;26549;50.918;5.338;2022-12-29T13:50:36;4.45;;;1.20;;
40827;SDS011;26549;50.918;5.338;2022-12-29T14:04:57;8.38;;;1.45;;
40827;SDS011;26549;50.918;5.338;2022-12-29T14:07:24;5.43;;;1.40;;
40827;SDS011;26549;50.918;5.338;2022-12-29T14:09:51;6.57;;;1.55;;
40827;SDS011;26549;50.918;5.338;2022-12-29T14:15:05;6.88;;;1.75;;
40827;SDS011;26549;50.918;5.338;2022-12-29T14:17:40;5.30;;;1.38;;
40827;SDS011;26549;50.918;5.338;2022-12-29T14:20:17;7.57;;;1.50;;
40827;SDS011;26549;50.918;5.338;2022-12-29T14:22:57;7.88;;;2.40;;
40827;SDS011;26549;50.918;5.338;2022-12-29T14:28:33;5.80;;;1.20;;
40827;SDS011;26549;50.918;5.338;2022-12-29T14:36:37;6.70;;;1.50;;
40827;SDS011;26549;50.918;5.338;2022-12-29T14:44:30;10.82;;;1.55;;
40827;SDS011;26549;50.918;5.338;2022-12-29T14:47:05;10.07;;;1.75;;
40827;SDS011;26549;50.918;5.338;2022-12-29T14:49:38;6.60;;;1.88;;
40827;SDS011;26549;50.918;5.338;2022-12-29T14:52:14;4.53;;;1.70;;
40827;SDS011;26549;50.918;5.338;2022-12-29T14:54:45;13.70;;;2.33;;
40827;SDS011;26549;50.918;5.338;2022-12-29T14:57:37;12.95;;;3.05;;
40827;SDS011;26549;50.918;5.338;2022-12-29T15:00:45;9.25;;;1.88;;
40827;SDS011;26549;50.918;5.338;2022-12-29T15:03:04;8.55;;;1.80;;
40827;SDS011;26549;50.918;5.338;2022-12-29T15:05:53;6.32;;;1.70;;
40827;SDS011;26549;50.918;5.338;2022-12-29T15:08:24;9.77;;;2.15;;
40827;SDS011;26549;50.918;5.338;2022-12-29T15:10:53;7.85;;;1.80;;
40827;SDS011;26549;50.918;5.338;2022-12-29T15:13:35;9.38;;;2.55;;
40827;SDS011;26549;50.918;5.338;2022-12-29T15:16:04;10.32;;;1.63;;
40827;SDS011;26549;50.918;5.338;2022-12-29T15:18:31;9.90;;;3.00;;
40827;SDS011;26549;50.918;5.338;2022-12-29T15:21:02;6.05;;;2.22;;
40827;SDS011;26549;50.918;5.338;2022-12-29T15:23:31;11.60;;;2.17;;
40827;SDS011;26549;50.918;5.338;2022-12-29T15:26:03;12.25;;;1.65;;
40827;SDS011;26549;50.918;5.338;2022-12-29T15:28:38;5.93;;;1.58;;
40827;SDS011;26549;50.918;5.338;2022-12-29T15:33:46;7.13;;;1.60;;
40827;SDS011;26549;50.918;5.338;2022-12-29T15:36:24;7.13;;;2.15;;
40827;SDS011;26549;50.918;5.338;2022-12-29T15:38:52;6.18;;;1.88;;
40827;SDS011;26549;50.918;5.338;2022-12-29T15:44:26;8.65;;;2.42;;
40827;SDS011;26549;50.918;5.338;2022-12-29T15:46:57;4.80;;;1.23;;
40827;SDS011;26549;50.918;5.338;2022-12-29T15:49:27;6.82;;;1.70;;
40827;SDS011;26549;50.918;5.338;2022-12-29T15:51:53;7.03;;;1.27;;
40827;SDS011;26549;50.918;5.338;2022-12-29T15:54:19;4.32;;;1.85;;
40827;SDS011;26549;50.918;5.338;2022-12-29T15:56:47;5.18;;;1.67;;
40827;SDS011;26549;50.918;5.338;2022-12-29T15:59:33;7.60;;;2.72;;
40827;SDS011;26549;50.918;5.338;2022-12-29T16:02:00;7.40;;;2.40;;
40827;SDS011;26549;50.918;5.338;2022-12-29T16:04:29;12.27;;;2.50;;
40827;SDS011;26549;50.918;5.338;2022-12-29T16:07:00;10.38;;;2.30;;
40827;SDS011;26549;50.918;5.338;2022-12-29T16:09:29;13.98;;;2.95;;
40827;SDS011;26549;50.918;5.338;2022-12-29T16:12:07;6.03;;;1.92;;
40827;SDS011;26549;50.918;5.338;2022-12-29T16:14:45;8.85;;;2.53;;
40827;SDS011;26549;50.918;5.338;2022-12-29T16:17:16;11.85;;;2.95;;
40827;SDS011;26549;50.918;5.338;2022-12-29T16:20:32;7.80;;;1.80;;
40827;SDS011;26549;50.918;5.338;2022-12-29T16:22:42;15.30;;;2.30;;
40827;SDS011;26549;50.918;5.338;2022-12-29T16:25:19;8.00;;;1.98;;
40827;SDS011;26549;50.918;5.338;2022-12-29T16:27:49;5.72;;;2.03;;
40827;SDS011;26549;50.918;5.338;2022-12-29T16:30:20;5.50;;;1.15;;
40827;SDS011;26549;50.918;5.338;2022-12-29T16:32:51;3.85;;;1.58;;
40827;SDS011;26549;50.918;5.338;2022-12-29T16:35:19;12.10;;;1.88;;
40827;SDS011;26549;50.918;5.338;2022-12-29T16:37:48;6.43;;;1.23;;
40827;SDS011;26549;50.918;5.338;2022-12-29T16:40:31;5.90;;;1.45;;
40827;SDS011;26549;50.918;5.338;2022-12-29T16:43:00;7.38;;;1.40;;
40827;SDS011;26549;50.918;5.338;2022-12-29T16:50:38;12.02;;;2.35;;
40827;SDS011;26549;50.918;5.338;2022-12-29T16:53:15;8.45;;;2.38;;
40827;SDS011;26549;50.918;5.338;2022-12-29T16:55:54;6.05;;;1.67;;
40827;SDS011;26549;50.918;5.338;2022-12-29T16:58:23;4.78;;;1.20;;
40827;SDS011;26549;50.918;5.338;2022-12-29T17:00:55;4.93;;;1.67;;
40827;SDS011;26549;50.918;5.338;2022-12-29T17:03:23;7.85;;;2.35;;
40827;SDS011;26549;50.918;5.338;2022-12-29T17:05:56;4.35;;;1.80;;
40827;SDS011;26549;50.918;5.338;2022-12-29T17:08:22;10.60;;;2.80;;
40827;SDS011;26549;50.918;5.338;2022-12-29T17:10:54;5.80;;;2.35;;
40827;SDS011;26549;50.918;5.338;2022-12-29T17:13:40;8.25;;;1.70;;
40827;SDS011;26549;50.918;5.338;2022-12-29T17:16:06;7.50;;;2.28;;
40827;SDS011;26549;50.918;5.338;2022-12-29T17:18:34;8.27;;;2.15;;